Time;durP1;ratioP1;P1;durP2;ratioP2;P2;SDS_P1;SDS_P2;PMS_P1;PMS_P2;Temp;Humidity;BMP_temperature;BMP_pressure;BME280_temperature;BME280_humidity;BME280_pressure;Samples;Min_cycle;Max_cycle;Signal;HPM_P1;HPM_P2
2022/02/27 00:00:59;;;;;;;10.73;5.95;;;;;;;;;;5072924;28;20029;-47
2022/02/27 00:03:25;;;;;;;10.48;6.25;;;;;;;;;;5072634;28;20143;-47
2022/02/27 00:05:51;;;;;;;11.05;6.35;;;;;;;;;;5072763;28;20060;-47
2022/02/27 00:08:17;;;;;;;12.82;7.10;;;;;;;;;;5072779;28;20040;-48
2022/02/27 00:10:43;;;;;;;14.18;6.88;;;;;;;;;;5073076;28;20024;-47
2022/02/27 00:13:09;;;;;;;13.32;6.35;;;;;;;;;;5071862;28;20553;-46
2022/02/27 00:15:35;;;;;;;14.13;6.68;;;;;;;;;;5072726;28;20064;-47
2022/02/27 00:18:01;;;;;;;13.77;6.60;;;;;;;;;;5072663;28;20021;-46
2022/02/27 00:20:27;;;;;;;13.15;7.28;;;;;;;;;;5072624;28;20033;-47
2022/02/27 00:22:54;;;;;;;11.82;6.30;;;;;;;;;;5072550;28;20024;-47
2022/02/27 00:25:20;;;;;;;14.38;6.28;;;;;;;;;;5072497;28;20024;-47
2022/02/27 00:27:46;;;;;;;12.93;6.75;;;;;;;;;;5072478;28;20395;-47
2022/02/27 00:30:12;;;;;;;14.02;6.28;;;;;;;;;;5072427;28;20032;-47
2022/02/27 00:32:38;;;;;;;11.38;6.18;;;;;;;;;;5072363;28;20029;-48
2022/02/27 00:35:05;;;;;;;18.13;7.00;;;15.70;83.70;;;;;;5072440;28;20415;-46
2022/02/27 00:37:32;;;;;;;15.30;6.93;;;;;;;;;;5072353;28;20036;-47
2022/02/27 00:39:58;;;;;;;12.85;6.55;;;;;;;;;;5072360;28;20086;-47
2022/02/27 00:42:24;;;;;;;12.63;6.53;;;;;;;;;;5072292;28;20024;-48
2022/02/27 00:44:49;;;;;;;13.63;6.40;;;;;;;;;;5072347;28;20554;-47
2022/02/27 00:47:16;;;;;;;12.98;6.30;;;;;;;;;;5072293;28;20413;-47
2022/02/27 00:49:42;;;;;;;11.35;6.65;;;;;;;;;;5072329;28;20021;-47
2022/02/27 00:52:08;;;;;;;13.18;6.38;;;;;;;;;;5072323;28;20051;-47
2022/02/27 00:54:34;;;;;;;11.50;6.60;;;;;;;;;;5072277;28;20048;-47
2022/02/27 00:57:00;;;;;;;9.95;6.43;;;;;;;;;;5072268;28;20048;-47
2022/02/27 00:59:26;;;;;;;11.85;6.10;;;;;;;;;;5072435;28;20061;-48
2022/02/27 01:01:52;;;;;;;12.93;6.20;;;;;;;;;;5071912;28;20027;-47
2022/02/27 01:04:18;;;;;;;14.68;6.78;;;;;;;;;;5072170;28;20101;-47
2022/02/27 01:06:44;;;;;;;13.18;6.65;;;;;;;;;;5072165;28;20112;-46
2022/02/27 01:09:10;;;;;;;12.02;6.63;;;;;;;;;;5072052;28;20115;-47
2022/02/27 01:11:36;;;;;;;13.27;6.75;;;;;;;;;;5072086;28;20032;-47
2022/02/27 01:14:02;;;;;;;12.65;6.47;;;;;;;;;;5071971;28;20119;-46
2022/02/27 01:16:28;;;;;;;11.68;5.70;;;;;;;;;;5071938;28;20031;-48
2022/02/27 01:18:54;;;;;;;13.43;6.78;;;;;;;;;;5072008;28;20047;-48
2022/02/27 01:21:20;;;;;;;14.85;6.40;;;;;;;;;;5071930;28;20035;-47
2022/02/27 01:23:47;;;;;;;11.68;5.82;;;15.30;84.20;;;;;;5073405;28;20120;-47
2022/02/27 01:26:13;;;;;;;11.10;6.32;;;15.40;83.00;;;;;;5075841;28;20024;-47
2022/02/27 01:28:39;;;;;;;12.68;6.28;;;;;;;;;;5075738;28;20059;-48
2022/02/27 01:31:09;;;;;;;11.98;5.85;;;15.30;85.30;;;;;;5075870;28;20489;-47
2022/02/27 01:33:35;;;;;;;13.07;6.00;;;;;;;;;;5075645;28;20064;-47
2022/02/27 01:36:01;;;;;;;13.13;6.22;;;;;;;;;;5075671;28;20107;-47
2022/02/27 01:38:27;;;;;;;14.80;6.75;;;;;;;;;;5075575;28;20396;-47
2022/02/27 01:40:53;;;;;;;11.93;5.88;;;;;;;;;;5075569;28;20024;-47
2022/02/27 01:43:20;;;;;;;12.18;6.18;;;;;;;;;;5075525;28;20479;-47
2022/02/27 01:45:47;;;;;;;16.65;7.18;;;15.20;85.90;;;;;;5075430;28;20031;-47
2022/02/27 01:48:13;;;;;;;12.60;5.85;;;;;;;;;;5075352;28;20021;-46
2022/02/27 01:50:39;;;;;;;14.38;7.28;;;;;;;;;;5075329;28;20040;-47
2022/02/27 01:53:05;;;;;;;11.95;5.97;;;;;;;;;;5075275;28;20033;-47
2022/02/27 01:55:31;;;;;;;13.02;6.63;;;;;;;;;;5075254;28;20087;-47
2022/02/27 01:57:57;;;;;;;11.90;5.63;;;;;;;;;;5075299;28;20383;-47
2022/02/27 02:00:24;;;;;;;14.35;5.50;;;;;;;;;;5075145;28;20032;-47
2022/02/27 02:02:50;;;;;;;13.68;6.35;;;;;;;;;;5074927;28;20194;-47
2022/02/27 02:05:16;;;;;;;13.43;5.90;;;15.20;82.40;;;;;;5075152;28;20070;-47
2022/02/27 02:07:42;;;;;;;13.40;6.38;;;;;;;;;;5075095;28;20442;-47
2022/02/27 02:10:08;;;;;;;10.60;5.82;;;15.10;83.60;;;;;;5075058;28;20037;-59
2022/02/27 02:12:34;;;;;;;14.05;6.05;;;;;;;;;;5073601;28;20124;-59
2022/02/27 02:15:00;;;;;;;12.77;6.45;;;;;;;;;;5074980;28;20460;-59
2022/02/27 02:17:26;;;;;;;10.73;5.68;;;;;;;;;;5074953;28;20036;-59
2022/02/27 02:19:53;;;;;;;11.25;5.97;;;;;;;;;;5074887;28;20032;-59
2022/02/27 02:22:19;;;;;;;13.55;5.88;;;;;;;;;;5074853;28;20031;-59
2022/02/27 02:24:45;;;;;;;11.52;5.55;;;;;;;;;;5074807;28;20028;-59
2022/02/27 02:27:11;;;;;;;13.32;5.90;;;;;;;;;;5074819;28;20024;-59
2022/02/27 02:29:38;;;;;;;10.88;5.35;;;;;;;;;;5074681;28;20024;-59
2022/02/27 02:32:04;;;;;;;10.85;5.78;;;;;;;;;;5074631;28;20407;-59
2022/02/27 02:34:30;;;;;;;13.35;5.40;;;;;;;;;;5074413;28;20441;-59
2022/02/27 02:36:56;;;;;;;10.48;5.70;;;;;;;;;;5074084;28;20479;-59
2022/02/27 02:39:24;;;;;;;10.85;5.68;;;15.00;85.60;;;;;;5074488;28;20035;-59
2022/02/27 02:41:50;;;;;;;10.10;5.38;;;;;;;;;;5074393;28;20029;-59
2022/02/27 02:44:16;;;;;;;10.60;5.55;;;15.10;82.70;;;;;;5074527;28;20032;-59
2022/02/27 02:46:42;;;;;;;13.05;5.50;;;;;;;;;;5074373;28;20027;-59
2022/02/27 02:49:10;;;;;;;10.50;4.55;;;14.90;85.60;;;;;;5074334;28;20631;-59
2022/02/27 02:51:36;;;;;;;8.88;5.20;;;;;;;;;;5074291;28;20060;-60
2022/02/27 02:54:02;;;;;;;12.18;5.30;;;;;;;;;;5074410;28;20123;-59
2022/02/27 02:56:28;;;;;;;11.38;4.97;;;;;;;;;;5074260;28;20031;-60
2022/02/27 02:58:54;;;;;;;11.70;5.47;;;;;;;;;;5074121;28;20036;-59
2022/02/27 03:01:22;;;;;;;12.73;4.80;;;14.90;84.10;;;;;;5074100;28;20024;-59
2022/02/27 03:03:50;;;;;;;8.18;4.38;;;14.90;87.50;;;;;;5074005;28;20076;-59
2022/02/27 03:06:16;;;;;;;11.85;5.32;;;;;;;;;;5074070;28;20104;-59
2022/02/27 03:08:42;;;;;;;10.63;4.90;;;;;;;;;;5073971;28;20058;-60
2022/02/27 03:11:08;;;;;;;8.98;5.00;;;;;;;;;;5073941;28;20414;-59
2022/02/27 03:13:35;;;;;;;10.50;4.93;;;;;;;;;;5073778;28;20036;-59
2022/02/27 03:16:01;;;;;;;10.60;4.88;;;;;;;;;;5073840;28;20086;-59
2022/02/27 03:18:27;;;;;;;11.00;4.97;;;;;;;;;;5073814;28;20029;-59
2022/02/27 03:20:53;;;;;;;11.13;4.68;;;;;;;;;;5073679;28;20103;-59
2022/02/27 03:23:19;;;;;;;9.85;4.75;;;;;;;;;;5073751;28;20060;-47
2022/02/27 03:25:45;;;;;;;11.38;4.70;;;;;;;;;;5073632;28;20539;-47
2022/02/27 03:28:11;;;;;;;9.15;4.93;;;;;;;;;;5073886;28;20029;-47
2022/02/27 03:30:38;;;;;;;10.20;5.32;;;;;;;;;;5073565;28;20071;-48
2022/02/27 03:33:07;;;;;;;8.43;4.97;;;14.80;80.90;;;;;;5073634;28;20033;-46
2022/02/27 03:35:33;;;;;;;9.02;4.57;;;;;;;;;;5073489;28;20028;-47
2022/02/27 03:37:59;;;;;;;10.80;4.80;;;;;;;;;;5073334;28;20041;-47
2022/02/27 03:40:25;;;;;;;10.07;4.35;;;;;;;;;;5073459;28;20031;-47
2022/02/27 03:42:51;;;;;;;11.15;4.60;;;;;;;;;;5073301;28;20120;-46
2022/02/27 03:45:17;;;;;;;11.60;4.47;;;;;;;;;;5073291;28;20519;-47
2022/02/27 03:47:43;;;;;;;9.35;4.90;;;;;;;;;;5073195;28;20103;-47
2022/02/27 03:50:13;;;;;;;9.70;4.60;;;14.70;80.90;;;;;;5073134;28;20036;-46
2022/02/27 03:52:39;;;;;;;12.60;4.60;;;;;;;;;;5073027;28;20029;-47
2022/02/27 03:55:07;;;;;;;8.65;4.70;;;14.70;86.70;;;;;;5073033;28;20502;-47
2022/02/27 03:57:33;;;;;;;8.43;4.57;;;;;;;;;;5073020;28;20025;-47
2022/02/27 03:59:59;;;;;;;7.47;4.28;;;;;;;;;;5072968;28;20044;-59
2022/02/27 04:02:25;;;;;;;8.80;4.78;;;;;;;;;;5072630;28;20044;-59
2022/02/27 04:04:51;;;;;;;10.10;4.10;;;;;;;;;;5072841;28;20050;-59
2022/02/27 04:07:17;;;;;;;8.25;4.10;;;;;;;;;;5072847;28;20036;-59
2022/02/27 04:09:43;;;;;;;9.45;4.32;;;;;;;;;;5072776;28;20069;-59
2022/02/27 04:12:09;;;;;;;9.68;4.18;;;14.60;84.20;;;;;;5072717;28;20040;-59
2022/02/27 04:14:35;;;;;;;7.82;3.92;;;;;;;;;;5072628;28;20035;-59
2022/02/27 04:17:01;;;;;;;9.55;4.30;;;;;;;;;;5072757;28;20025;-59
2022/02/27 04:19:27;;;;;;;8.30;4.07;;;;;;;;;;5072730;28;20063;-59
2022/02/27 04:21:53;;;;;;;7.88;3.78;;;;;;;;;;5072648;28;20098;-59
2022/02/27 04:24:19;;;;;;;8.40;4.55;;;;;;;;;;5072625;28;20036;-59
2022/02/27 04:26:46;;;;;;;9.55;4.00;;;;;;;;;;5072572;28;20103;-59
2022/02/27 04:29:11;;;;;;;8.93;4.45;;;;;;;;;;5072778;28;20032;-59
2022/02/27 04:31:38;;;;;;;8.98;4.43;;;;;;;;;;5072542;28;20021;-59
2022/02/27 04:34:04;;;;;;;7.80;3.95;;;;;;;;;;5072317;28;20539;-59
2022/02/27 04:36:30;;;;;;;6.47;3.90;;;;;;;;;;5072470;28;20028;-59
2022/02/27 04:38:56;;;;;;;7.80;4.15;;;;;;;;;;5072479;28;20399;-59
2022/02/27 04:41:22;;;;;;;7.55;3.67;;;;;;;;;;5072427;28;20032;-59
2022/02/27 04:43:48;;;;;;;7.82;4.05;;;;;;;;;;5072408;28;20044;-59
2022/02/27 04:46:15;;;;;;;8.65;3.67;;;;;;;;;;5072322;28;20031;-59
2022/02/27 04:48:41;;;;;;;6.97;4.03;;;;;;;;;;5072360;28;20029;-59
2022/02/27 04:51:07;;;;;;;11.57;3.70;;;;;;;;;;5072274;28;20081;-59
2022/02/27 04:53:34;;;;;;;7.90;3.75;;;14.20;86.50;;;;;;5072576;28;20413;-59
2022/02/27 04:56:00;;;;;;;7.40;3.65;;;;;;;;;;5072290;28;20020;-59
2022/02/27 04:58:26;;;;;;;7.43;3.72;;;;;;;;;;5074586;28;20036;-59
2022/02/27 05:00:52;;;;;;;7.10;3.25;;;;;;;;;;5078928;28;20107;-59
2022/02/27 05:03:18;;;;;;;8.98;3.72;;;;;;;;;;5078604;28;20052;-59
2022/02/27 05:05:44;;;;;;;8.80;3.55;;;;;;;;;;5078891;28;20047;-59
2022/02/27 05:08:10;;;;;;;8.70;3.72;;;;;;;;;;5078850;28;20479;-59
2022/02/27 05:10:36;;;;;;;8.02;3.97;;;;;;;;;;5078852;28;20034;-59
2022/02/27 05:13:02;;;;;;;8.32;4.22;;;;;;;;;;5078780;28;20037;-59
2022/02/27 05:15:29;;;;;;;9.15;4.45;;;;;;;;;;5078906;28;20135;-59
2022/02/27 05:17:55;;;;;;;8.65;3.58;;;;;;;;;;5078683;28;20024;-59
2022/02/27 05:20:21;;;;;;;8.85;3.78;;;;;;;;;;5078606;28;20020;-59
2022/02/27 05:22:48;;;;;;;7.40;3.60;;;;;;;;;;5078697;28;20544;-59
2022/02/27 05:25:18;;;;;;;6.40;3.63;;;;;;;;;;5078626;28;20077;-59
2022/02/27 05:27:44;;;;;;;;;;;14.20;80.50;;;;;;5079365;28;20028;-59
2022/02/27 05:30:10;;;;;;;5.13;2.90;;;;;;;;;;5078587;28;19911;-58
2022/02/27 05:32:36;;;;;;;6.68;3.28;;;;;;;;;;5078661;28;20020;-59
2022/02/27 05:35:02;;;;;;;5.82;2.97;;;;;;;;;;5078466;28;20138;-59
2022/02/27 05:37:28;;;;;;;7.80;3.38;;;;;;;;;;5078502;28;20103;-58
2022/02/27 05:39:54;;;;;;;7.53;4.05;;;;;;;;;;5078427;28;20040;-58
2022/02/27 05:42:20;;;;;;;8.23;3.00;;;;;;;;;;5078729;28;20021;-59
2022/02/27 05:44:47;;;;;;;6.65;3.20;;;;;;;;;;5078532;28;20035;-59
2022/02/27 05:47:13;;;;;;;5.47;2.95;;;;;;;;;;5078531;28;20028;-60
2022/02/27 05:49:39;;;;;;;5.93;3.13;;;;;;;;;;5078499;28;20198;-59
2022/02/27 05:52:05;;;;;;;5.80;2.75;;;;;;;;;;5078453;28;20029;-59
2022/02/27 05:54:31;;;;;;;5.65;2.67;;;;;;;;;;5078306;28;20078;-58
2022/02/27 05:56:57;;;;;;;8.80;3.20;;;;;;;;;;5078338;28;20028;-59
2022/02/27 05:59:23;;;;;;;6.65;2.63;;;;;;;;;;5078318;28;20108;-59
2022/02/27 06:01:49;;;;;;;6.63;2.97;;;14.20;85.10;;;;;;5078102;28;20032;-59
2022/02/27 06:04:16;;;;;;;7.00;2.83;;;14.20;87.40;;;;;;5078295;28;20028;-59
2022/02/27 06:06:42;;;;;;;3.63;2.70;;;14.40;84.10;;;;;;5078341;28;20376;-58
2022/02/27 06:09:09;;;;;;;4.90;2.50;;;;;;;;;;5077938;28;20458;-59
2022/02/27 06:11:35;;;;;;;3.55;2.47;;;;;;;;;;5073991;28;20025;-60
2022/02/27 06:14:01;;;;;;;5.85;2.67;;;;;;;;;;5074938;28;20399;-59
2022/02/27 06:16:27;;;;;;;6.13;3.08;;;;;;;;;;5074959;28;20033;-60
2022/02/27 06:18:53;;;;;;;4.88;2.30;;;;;;;;;;5074967;28;20475;-60
2022/02/27 06:21:19;;;;;;;4.63;2.47;;;;;;;;;;5074973;28;20028;-60
2022/02/27 06:23:45;;;;;;;5.75;2.10;;;;;;;;;;5074851;28;20025;-59
2022/02/27 06:26:11;;;;;;;5.25;2.22;;;;;;;;;;5074954;28;20039;-58
2022/02/27 06:28:37;;;;;;;8.00;2.42;;;;;;;;;;5074850;28;20112;-60
2022/02/27 06:31:03;;;;;;;6.25;2.70;;;;;;;;;;5075061;28;20103;-59
2022/02/27 06:33:29;;;;;;;4.13;2.00;;;;;;;;;;5074668;28;20039;-59
2022/02/27 06:35:55;;;;;;;4.95;1.85;;;;;;;;;;5074788;28;20037;-59
2022/02/27 06:38:21;;;;;;;5.68;2.35;;;;;;;;;;5074717;28;20024;-59
2022/02/27 06:40:47;;;;;;;4.78;1.67;;;;;;;;;;5074560;28;20035;-59
2022/02/27 06:43:13;;;;;;;5.78;2.10;;;;;;;;;;5074563;28;20406;-59
2022/02/27 06:45:39;;;;;;;3.63;1.88;;;;;;;;;;5074507;28;20120;-59
2022/02/27 06:48:05;;;;;;;5.18;1.70;;;;;;;;;;5074440;28;20065;-59
2022/02/27 06:50:31;;;;;;;7.10;2.28;;;;;;;;;;5074358;28;20021;-59
2022/02/27 06:52:57;;;;;;;5.70;2.05;;;;;;;;;;5074265;28;20399;-58
2022/02/27 06:55:23;;;;;;;4.50;1.90;;;;;;;;;;5074318;28;20040;-59
2022/02/27 06:57:50;;;;;;;5.40;2.00;;;;;;;;;;5072872;28;20056;-59
2022/02/27 07:00:17;;;;;;;3.72;1.77;;;14.50;82.00;;;;;;5074195;28;20031;-59
2022/02/27 07:02:44;;;;;;;6.28;2.45;;;16.10;81.00;;;;;;5073912;28;20090;-59
2022/02/27 07:05:10;;;;;;;4.75;2.17;;;;;;;;;;5074137;28;20020;-59
2022/02/27 07:07:36;;;;;;;4.60;1.80;;;;;;;;;;5074090;28;20052;-59
2022/02/27 07:10:04;;;;;;;6.22;2.00;;;15.80;84.00;;;;;;5073958;28;20502;-59
2022/02/27 07:12:31;;;;;;;3.55;1.80;;;16.20;83.90;;;;;;5073959;28;20111;-59
2022/02/27 07:14:57;;;;;;;3.42;2.03;;;;;;;;;;5073840;28;20129;-59
2022/02/27 07:17:23;;;;;;;5.22;2.13;;;;;;;;;;5074131;28;20111;-59
2022/02/27 07:19:49;;;;;;;5.78;2.40;;;;;;;;;;5073843;28;20094;-60
2022/02/27 07:22:15;;;;;;;4.90;1.88;;;;;;;;;;5073506;28;20103;-48
2022/02/27 07:24:41;;;;;;;6.35;2.47;;;;;;;;;;5073674;28;20025;-48
2022/02/27 07:27:07;;;;;;;5.10;2.33;;;;;;;;;;5073666;28;20493;-47
2022/02/27 07:29:33;;;;;;;4.55;2.08;;;;;;;;;;5073670;28;20028;-46
2022/02/27 07:31:59;;;;;;;4.30;1.75;;;15.80;83.20;;;;;;5073531;28;20502;-46
2022/02/27 07:34:26;;;;;;;5.07;1.80;;;;;;;;;;5073415;28;20487;-47
2022/02/27 07:36:52;;;;;;;4.68;1.80;;;;;;;;;;5073434;28;20029;-47
2022/02/27 07:39:26;;;;;;;3.55;1.65;;;15.70;84.30;;;;;;5073466;28;20032;-46
2022/02/27 07:41:52;;;;;;;4.75;2.08;;;15.70;80.10;;;;;;5073392;28;20056;-46
2022/02/27 07:44:19;;;;;;;3.58;1.70;;;;;;;;;;5073267;28;20027;-47
2022/02/27 07:46:47;;;;;;;6.57;2.20;;;;;;;;;;5073303;28;20028;-47
2022/02/27 07:49:13;;;;;;;6.18;2.17;;;;;;;;;;5073271;28;20032;-47
2022/02/27 07:51:39;;;;;;;7.03;2.67;;;;;;;;;;5073317;28;20047;-47
2022/02/27 07:54:05;;;;;;;2.92;1.92;;;;;;;;;;5073053;28;20037;-47
2022/02/27 07:56:31;;;;;;;5.00;1.58;;;;;;;;;;5073189;28;20036;-47
2022/02/27 07:58:57;;;;;;;6.90;1.80;;;;;;;;;;5073181;28;20028;-46
2022/02/27 08:01:23;;;;;;;3.38;1.80;;;;;;;;;;5072962;28;20028;-47
2022/02/27 08:03:49;;;;;;;6.57;1.77;;;;;;;;;;5072750;28;20056;-47
2022/02/27 08:06:15;;;;;;;4.47;1.80;;;;;;;;;;5072846;28;20412;-47
2022/02/27 08:08:41;;;;;;;4.70;1.75;;;;;;;;;;5072882;28;20033;-48
2022/02/27 08:11:07;;;;;;;4.35;1.63;;;;;;;;;;5072767;28;20025;-47
2022/02/27 08:13:33;;;;;;;5.55;1.77;;;;;;;;;;5072686;28;20149;-46
2022/02/27 08:15:59;;;;;;;3.05;1.52;;;;;;;;;;5071498;28;20024;-46
2022/02/27 08:18:26;;;;;;;4.97;1.55;;;;;;;;;;5072757;28;20039;-47
2022/02/27 08:20:52;;;;;;;4.82;2.15;;;;;;;;;;5072707;28;20074;-47
2022/02/27 08:23:18;;;;;;;3.75;1.65;;;;;;;;;;5072659;28;20029;-47
2022/02/27 08:25:47;;;;;;;3.75;1.63;;;16.10;85.00;;;;;;5072707;28;20423;-47
2022/02/27 08:28:14;;;;;;;6.25;1.80;;;;;;;;;;5072615;28;20074;-45
2022/02/27 08:30:40;;;;;;;4.82;1.65;;;;;;;;;;5072831;28;20378;-47
2022/02/27 08:33:06;;;;;;;4.97;1.80;;;;;;;;;;5071705;28;20024;-47
2022/02/27 08:35:32;;;;;;;3.05;1.50;;;;;;;;;;5072582;28;20040;-47
2022/02/27 08:37:58;;;;;;;4.85;1.77;;;;;;;;;;5072454;28;20394;-49
2022/02/27 08:40:24;;;;;;;5.95;1.83;;;;;;;;;;5072439;28;20032;-47
2022/02/27 08:42:54;;;;;;;7.45;2.03;;;16.60;78.70;;;;;;5072427;28;20386;-48
2022/02/27 08:45:21;;;;;;;4.20;2.03;;;;;;;;;;5072599;28;20035;-48
2022/02/27 08:47:46;;;;;;;5.03;1.95;;;;;;;;;;5072364;28;20042;-47
2022/02/27 08:50:12;;;;;;;9.15;2.20;;;;;;;;;;5072292;28;20036;-49
2022/02/27 08:52:39;;;;;;;4.97;2.17;;;;;;;;;;5072351;28;20024;-48
2022/02/27 08:55:05;;;;;;;5.43;1.90;;;16.60;82.40;;;;;;5072172;28;20119;-48
2022/02/27 08:57:31;;;;;;;6.10;2.22;;;;;;;;;;5072516;28;20087;-46
2022/02/27 08:59:57;;;;;;;6.13;2.30;;;;;;;;;;5072195;28;20035;-47
2022/02/27 09:02:23;;;;;;;6.63;1.85;;;;;;;;;;5071949;28;20048;-46
2022/02/27 09:04:50;;;;;;;6.30;2.55;;;;;;;;;;5072239;28;20028;-47
2022/02/27 09:07:16;;;;;;;7.15;2.03;;;;;;;;;;5072383;28;20029;-47
2022/02/27 09:09:42;;;;;;;4.93;1.98;;;;;;;;;;5072193;28;20032;-47
2022/02/27 09:12:09;;;;;;;10.27;2.10;;;;;;;;;;5072093;28;20028;-57
2022/02/27 09:14:35;;;;;;;6.97;1.77;;;;;;;;;;5071939;28;20068;-58
2022/02/27 09:17:01;;;;;;;4.72;2.10;;;;;;;;;;5071862;28;20461;-57
2022/02/27 09:19:27;;;;;;;9.48;2.15;;;;;;;;;;5071792;28;20029;-57
2022/02/27 09:21:53;;;;;;;7.68;2.08;;;;;;;;;;5071848;28;20017;-58
2022/02/27 09:24:19;;;;;;;7.40;2.10;;;;;;;;;;5071937;28;20033;-58
2022/02/27 09:26:46;;;;;;;5.18;1.90;;;;;;;;;;5072012;28;20021;-57
2022/02/27 09:29:12;;;;;;;4.40;1.92;;;18.40;79.20;;;;;;5072218;28;20036;-57
2022/02/27 09:31:38;;;;;;;6.95;2.00;;;;;;;;;;5071837;28;20029;-58
2022/02/27 09:34:05;;;;;;;5.93;1.92;;;18.50;81.70;;;;;;5071814;28;20090;-58
2022/02/27 09:36:31;;;;;;;4.22;1.65;;;;;;;;;;5071797;28;20029;-57
2022/02/27 09:38:57;;;;;;;6.97;2.10;;;;;;;;;;5071834;28;20029;-57
2022/02/27 09:41:23;;;;;;;3.33;1.73;;;;;;;;;;5071767;28;20069;-58
2022/02/27 09:43:54;;;;;;;3.55;1.58;;;18.70;74.80;;;;;;5071711;28;20037;-58
2022/02/27 09:46:21;;;;;;;6.68;1.75;;;18.60;80.90;;;;;;5075450;28;20021;-57
2022/02/27 09:48:47;;;;;;;3.58;1.33;;;;;;;;;;5075774;28;20028;-58
2022/02/27 09:51:13;;;;;;;4.32;1.77;;;;;;;;;;5075413;28;20029;-57
2022/02/27 09:53:39;;;;;;;4.28;1.55;;;;;;;;;;5075323;28;20071;-58
2022/02/27 09:56:06;;;;;;;4.07;1.80;;;;;;;;;;5075395;28;20032;-57
2022/02/27 09:58:32;;;;;;;3.25;1.83;;;;;;;;;;5075341;28;20039;-58
2022/02/27 10:00:58;;;;;;;4.97;1.90;;;;;;;;;;5075255;28;20039;-57
2022/02/27 10:03:28;;;;;;;4.32;1.75;;;18.40;74.90;;;;;;5074861;28;20119;-55
2022/02/27 10:06:08;;;;;;;5.40;1.80;;;18.40;81.00;;;;;;5075213;28;20020;-57
2022/02/27 10:08:42;;;;;;;5.03;1.80;;;18.50;74.80;;;;;;5075177;28;20105;-57
2022/02/27 10:11:12;;;;;;;3.35;1.45;;;18.40;80.60;;;;;;5075315;28;20055;-57
2022/02/27 10:13:42;;;;;;;5.20;1.83;;;18.70;80.60;;;;;;5075030;28;20029;-58
2022/02/27 10:16:08;;;;;;;5.53;1.90;;;;;;;;;;5074941;28;20066;-56
2022/02/27 10:18:40;;;;;;;3.63;1.63;;;18.40;74.40;;;;;;5074865;28;20033;-57
2022/02/27 10:21:17;;;;;;;4.47;1.58;;;18.40;80.00;;;;;;5074873;28;20478;-57
2022/02/27 10:23:43;;;;;;;5.07;1.88;;;;;;;;;;5074789;28;20040;-53
2022/02/27 10:26:22;;;;;;;4.18;1.65;;;18.40;73.80;;;;;;5075106;28;20017;-57
2022/02/27 10:29:14;;;;;;;4.40;1.98;;;18.50;74.10;;;;;;5074972;28;20378;-57
2022/02/27 10:31:42;;;;;;;4.70;1.60;;;18.40;80.10;;;;;;5074580;28;20024;-53
2022/02/27 10:34:25;;;;;;;5.25;1.58;;;18.40;73.70;;;;;;5074542;28;20119;-57
2022/02/27 10:37:14;;;;;;;2.92;1.35;;;18.50;73.80;;;;;;5074524;28;20117;-57
2022/02/27 10:39:46;;;;;;;4.32;1.50;;;18.40;73.60;;;;;;5074558;28;20060;-56
2022/02/27 10:42:22;;;;;;;2.85;1.20;;;18.60;73.60;;;;;;5074695;28;20020;-57
2022/02/27 10:44:52;;;;;;;4.20;1.30;;;18.40;73.70;;;;;;5074443;28;20039;-47
2022/02/27 10:47:26;;;;;;;3.72;1.20;;;18.20;73.50;;;;;;5074363;28;20029;-48
2022/02/27 10:49:54;;;;;;;3.38;1.20;;;18.30;79.90;;;;;;5074548;28;20017;-47
2022/02/27 10:52:31;;;;;;;6.70;1.63;;;18.40;73.60;;;;;;5074214;28;20039;-47
2022/02/27 10:55:00;;;;;;;3.55;1.20;;;18.30;79.90;;;;;;5074159;28;20032;-48
2022/02/27 10:57:27;;;;;;;3.42;1.17;;;;;;;;;;5073430;28;20490;-47
2022/02/27 10:59:54;;;;;;;2.92;1.20;;;;;;;;;;5074366;28;20029;-47
2022/02/27 11:02:21;;;;;;;4.20;1.50;;;18.30;80.00;;;;;;5074089;28;20041;-48
2022/02/27 11:04:48;;;;;;;4.65;1.30;;;;;;;;;;5074076;28;20483;-48
2022/02/27 11:07:14;;;;;;;4.45;2.15;;;;;;;;;;5074013;28;20028;-48
2022/02/27 11:09:44;;;;;;;5.15;1.60;;;;;;;;;;5073964;28;20471;-47
2022/02/27 11:12:10;;;;;;;;;;;18.20;73.60;;;;;;5074727;28;20106;-48
2022/02/27 11:14:36;;;;;;;3.60;1.45;;;;;;;;;;5073885;28;20398;-48
2022/02/27 11:17:02;;;;;;;6.10;1.50;;;;;;;;;;5073915;28;20056;-48
2022/02/27 11:19:28;;;;;;;3.33;1.50;;;18.10;78.60;;;;;;5073898;28;20028;-47
2022/02/27 11:21:54;;;;;;;2.53;1.20;;;;;;;;;;5073810;28;20027;-48
2022/02/27 11:24:21;;;;;;;3.90;1.33;;;;;;;;;;5074082;28;20033;-46
2022/02/27 11:26:47;;;;;;;6.20;1.70;;;;;;;;;;5073658;28;20463;-47
2022/02/27 11:29:13;;;;;;;3.45;1.10;;;;;;;;;;5073649;28;20108;-47
2022/02/27 11:31:40;;;;;;;2.13;1.00;;;18.00;79.50;;;;;;5073464;28;20028;-48
2022/02/27 11:34:16;;;;;;;3.28;1.52;;;;;;;;;;5073240;28;20036;-47
2022/02/27 11:36:45;;;;;;;3.42;1.23;;;;;;;;;;5073485;28;20024;-48
2022/02/27 11:41:58;;;;;;;4.60;1.67;;;;;;;;;;5073625;28;20050;-48
2022/02/27 11:44:37;;;;;;;3.72;1.25;;;18.00;73.50;;;;;;5073284;28;20475;-48
2022/02/27 11:47:08;;;;;;;7.57;1.20;;;17.90;73.00;;;;;;5073089;28;20040;-48
2022/02/27 11:49:42;;;;;;;3.05;1.20;;;17.80;76.30;;;;;;5072975;28;20024;-47
2022/02/27 11:52:08;;;;;;;6.47;1.77;;;;;;;;;;5072941;28;20048;-47
2022/02/27 11:54:53;;;;;;;3.33;1.30;;;17.80;72.80;;;;;;5073104;28;20024;-49
2022/02/27 11:57:27;;;;;;;4.95;1.20;;;17.80;72.40;;;;;;5071396;28;20518;-48
2022/02/27 11:59:55;;;;;;;2.67;1.42;;;17.70;78.40;;;;;;5073304;28;20405;-48
2022/02/27 12:02:24;;;;;;;6.38;1.23;;;17.60;78.30;;;;;;5072890;28;20068;-48
2022/02/27 12:04:51;;;;;;;5.32;1.55;;;;;;;;;;5072929;28;20028;-50
2022/02/27 12:07:17;;;;;;;4.35;1.45;;;;;;;;;;5072837;28;20039;-48
2022/02/27 12:09:51;;;;;;;4.53;1.00;;;17.50;70.70;;;;;;5072339;28;20483;-48
2022/02/27 12:12:34;;;;;;;2.78;1.45;;;17.70;70.70;;;;;;5072690;28;20078;-49
2022/02/27 12:15:26;;;;;;;5.05;1.58;;;17.70;70.40;;;;;;5072681;28;20478;-47
2022/02/27 12:18:16;;;;;;;3.97;1.40;;;17.60;70.40;;;;;;5072743;28;20039;-48
2022/02/27 12:20:52;;;;;;;2.60;1.30;;;17.60;70.20;;;;;;5072655;28;20089;-50
2022/02/27 12:23:33;;;;;;;5.20;1.27;;;17.50;69.90;;;;;;5072913;28;20066;-51
2022/02/27 12:26:01;;;;;;;5.80;1.42;;;17.50;76.00;;;;;;5072406;28;20039;-48
2022/02/27 12:28:54;;;;;;;3.50;1.23;;;17.40;69.80;;;;;;5072509;28;20502;-50
2022/02/27 12:31:29;;;;;;;2.97;1.42;;;17.40;75.80;;;;;;5072499;28;20029;-50
2022/02/27 12:33:57;;;;;;;4.43;1.02;;;17.40;75.70;;;;;;5073042;28;20230;-48
2022/02/27 12:36:36;;;;;;;2.83;1.17;;;17.50;69.30;;;;;;5072448;28;20434;-49
2022/02/27 12:39:09;;;;;;;2.70;0.95;;;17.50;75.30;;;;;;5072320;28;20043;-49
2022/02/27 12:41:36;;;;;;;2.97;1.40;;;17.50;74.80;;;;;;5072453;28;20052;-48
2022/02/27 12:44:04;;;;;;;2.40;0.82;;;17.60;75.50;;;;;;5072398;28;20040;-49
2022/02/27 12:46:30;;;;;;;4.28;1.38;;;;;;;;;;5072313;28;20025;-49
2022/02/27 12:51:41;;;;;;;4.93;1.50;;;;;;;;;;5072472;28;20449;-48
2022/02/27 12:54:23;;;;;;;2.90;0.98;;;17.90;70.20;;;;;;5072117;28;20082;-48
2022/02/27 12:56:56;;;;;;;3.30;1.20;;;18.00;70.20;;;;;;5072315;28;20020;-49
2022/02/27 12:59:27;;;;;;;2.35;1.17;;;18.10;76.30;;;;;;5072076;28;20032;-48
2022/02/27 13:01:55;;;;;;;2.75;1.10;;;18.20;75.80;;;;;;5071969;28;20054;-48
2022/02/27 13:04:21;;;;;;;5.57;1.08;;;;;;;;;;5072171;28;20068;-49
2022/02/27 13:07:01;;;;;;;5.25;1.23;;;18.30;76.20;;;;;;5072228;28;20032;-48
2022/02/27 13:09:27;;;;;;;;;;;18.40;70.80;;;;;;5072685;28;20020;-48
2022/02/27 13:11:55;;;;;;;4.45;0.90;;;;;;;;;;5072145;28;19905;-48
2022/02/27 13:14:25;;;;;;;3.42;0.88;;;18.50;70.00;;;;;;5071957;28;20131;-49
2022/02/27 13:16:54;;;;;;;2.20;0.82;;;18.60;69.80;;;;;;5072300;28;20059;-48
2022/02/27 13:19:34;;;;;;;1.77;0.80;;;18.60;69.50;;;;;;5073135;28;20044;-47
2022/02/27 13:22:02;;;;;;;2.60;1.08;;;18.70;75.70;;;;;;5076390;28;20021;-48
2022/02/27 13:24:38;;;;;;;3.55;1.27;;;18.70;69.80;;;;;;5076254;28;20029;-49
2022/02/27 13:27:05;;;;;;;1.85;1.00;;;18.80;73.00;;;;;;5075982;28;20032;-46
2022/02/27 13:29:32;;;;;;;2.90;1.30;;;18.80;75.60;;;;;;5076024;28;20028;-48
2022/02/27 13:31:58;;;;;;;3.00;1.17;;;;;;;;;;5075943;28;20035;-48
2022/02/27 13:34:25;;;;;;;3.15;1.10;;;;;;;;;;5075731;28;20436;-48
2022/02/27 13:36:51;;;;;;;1.73;0.80;;;18.80;75.10;;;;;;5075762;28;20391;-48
2022/02/27 13:39:17;;;;;;;1.55;0.80;;;;;;;;;;5075644;28;20025;-48
2022/02/27 13:41:43;;;;;;;1.85;1.00;;;;;;;;;;5075704;28;20031;-48
2022/02/27 13:44:09;;;;;;;1.15;0.75;;;;;;;;;;5075608;28;20032;-48
2022/02/27 13:46:38;;;;;;;4.18;0.85;;;18.70;72.70;;;;;;5075563;28;20067;-48
2022/02/27 13:49:13;;;;;;;1.83;0.98;;;18.80;69.90;;;;;;5075842;28;20052;-48
2022/02/27 13:51:39;;;;;;;2.42;0.90;;;;;;;;;;5075491;28;20391;-48
2022/02/27 13:54:19;;;;;;;4.47;1.13;;;18.60;69.40;;;;;;5075386;28;20044;-48
2022/02/27 13:57:10;;;;;;;4.40;1.15;;;18.70;70.10;;;;;;5075562;28;20066;-47
2022/02/27 13:59:41;;;;;;;4.38;0.95;;;18.60;70.30;;;;;;5075406;28;20390;-48
2022/02/27 14:02:08;;;;;;;4.65;1.38;;;;;;;;;;5075123;28;20044;-48
2022/02/27 14:04:34;;;;;;;2.33;0.90;;;;;;;;;;5075383;28;20060;-48
2022/02/27 14:07:01;;;;;;;2.65;0.98;;;;;;;;;;5075259;28;20067;-48
2022/02/27 14:09:27;;;;;;;2.35;1.27;;;;;;;;;;5075150;28;20078;-48
2022/02/27 14:12:03;;;;;;;1.80;0.82;;;18.60;70.30;;;;;;5075228;28;20103;-49